KUNU/UNU METAR and TAF weather

Enter ICAO airport designator
Station Type Date Time Source
KUNU METAR 2019/10/23 14:15 UTC NOAA

KUNU 231415Z AUTO 24011KT 10SM CLR 04/00 A2987 RMK AO2 T00400000


Station Type Date Time Source
KUNU Decoded METAR 2019/10/23 14:15 UTC NOAA

Juneau, Dodge County Airport, WI, United States (KUNU) 43-25-36N 088-42-12W
Oct 23, 2019 - 10:15 AM EDT / 2019.10.23 1415 UTC
Wind: from the WSW (240 degrees) at 13 MPH (11 KT):0
Visibility: 10 mile(s):0
Sky conditions: clear
Temperature: 39.2 F (4.0 C)
Dew Point: 32.0 F (0.0 C)
Relative Humidity: 75%
Pressure (altimeter): 29.87 in. Hg (1011 hPa)
ob: KUNU 231415Z AUTO 24011KT 10SM CLR 04/00 A2987 RMK AO2 T00400000
cycle: 14

Station Type Date Time Source
KUNU TAF UTC NOAA

Error!

Example: see airport list